createdAt,value
2016-08-22T00:00:30.568Z,0
2016-08-22T00:01:43.745Z,0
2016-08-22T00:02:56.722Z,0
2016-08-22T00:04:09.708Z,0
2016-08-22T00:05:22.694Z,0
2016-08-22T00:06:35.891Z,0
2016-08-22T00:07:48.860Z,0
2016-08-22T00:09:01.831Z,0
2016-08-22T00:10:14.844Z,0
2016-08-22T00:11:27.827Z,0
2016-08-22T00:12:40.808Z,0
2016-08-22T00:13:53.789Z,0
2016-08-22T00:15:06.968Z,0
2016-08-22T00:16:19.952Z,0
2016-08-22T00:17:32.931Z,0
2016-08-22T00:18:46.108Z,0
2016-08-22T00:19:59.099Z,0
2016-08-22T00:21:12.069Z,0
2016-08-22T00:22:25.048Z,0
2016-08-22T00:23:38.033Z,0
2016-08-22T00:24:51.009Z,0
2016-08-22T00:26:04.002Z,0
2016-08-22T00:27:16.975Z,0
2016-08-22T00:28:29.950Z,0
2016-08-22T00:29:43.133Z,0
2016-08-22T00:30:56.110Z,0
2016-08-22T00:32:09.093Z,0
2016-08-22T00:33:22.286Z,0
2016-08-22T00:34:35.257Z,0
2016-08-22T00:35:48.437Z,0
2016-08-22T00:37:01.624Z,0
2016-08-22T00:38:14.600Z,0
2016-08-22T00:39:27.783Z,0
2016-08-22T00:40:40.763Z,0
2016-08-22T00:41:53.939Z,0
2016-08-22T00:43:06.923Z,0
2016-08-22T00:44:19.914Z,0
2016-08-22T00:45:32.885Z,0
2016-08-22T00:46:46.065Z,0
2016-08-22T00:47:59.055Z,0
2016-08-22T00:49:12.030Z,0
2016-08-22T00:50:25.006Z,0
2016-08-22T00:51:37.983Z,0
2016-08-22T00:52:50.968Z,0
2016-08-22T00:54:04.016Z,0
2016-08-22T00:55:16.997Z,0
2016-08-22T00:56:29.972Z,0
2016-08-22T00:57:42.952Z,0
2016-08-22T00:58:56.151Z,0
2016-08-22T01:00:09.336Z,0
2016-08-22T01:01:22.512Z,0
2016-08-22T01:02:35.491Z,0
2016-08-22T01:03:48.466Z,0
2016-08-22T01:05:01.435Z,0
2016-08-22T01:06:14.403Z,0
2016-08-22T01:07:27.375Z,0
2016-08-22T01:08:40.364Z,0
2016-08-22T01:09:53.537Z,0
2016-08-22T01:11:06.513Z,0
2016-08-22T01:12:19.482Z,0
2016-08-22T01:13:32.866Z,0
2016-08-22T01:14:45.846Z,0
2016-08-22T01:15:59.026Z,0
2016-08-22T01:17:12.005Z,0
2016-08-22T01:18:24.987Z,0
2016-08-22T01:19:37.968Z,0
2016-08-22T01:20:50.958Z,0
2016-08-22T01:22:03.939Z,0
2016-08-22T01:23:16.914Z,0
2016-08-22T01:24:29.893Z,0
2016-08-22T01:25:43.275Z,0
2016-08-22T01:26:56.261Z,0
2016-08-22T01:28:09.246Z,0
2016-08-22T01:29:22.223Z,0
2016-08-22T01:30:35.188Z,0
2016-08-22T01:31:48.361Z,0
2016-08-22T01:33:01.337Z,0
2016-08-22T01:34:14.327Z,0
2016-08-22T01:35:27.309Z,0
2016-08-22T01:36:40.297Z,0
2016-08-22T01:37:53.276Z,0
2016-08-22T01:39:06.247Z,0
2016-08-22T01:40:19.427Z,0
2016-08-22T01:41:32.418Z,0
2016-08-22T01:42:45.797Z,0
2016-08-22T01:43:58.971Z,0
2016-08-22T01:45:11.939Z,0
2016-08-22T01:46:24.913Z,0
2016-08-22T01:47:37.887Z,0
2016-08-22T01:48:50.853Z,0
2016-08-22T01:50:04.044Z,0
2016-08-22T01:51:17.017Z,0
2016-08-22T01:52:29.999Z,0
2016-08-22T01:53:43.172Z,0
2016-08-22T01:54:56.203Z,0
2016-08-22T01:56:09.185Z,0
2016-08-22T01:57:22.162Z,0
2016-08-22T01:58:35.144Z,0
2016-08-22T01:59:48.120Z,0
2016-08-22T02:01:01.093Z,0
2016-08-22T02:02:14.072Z,0
2016-08-22T02:03:27.251Z,0
2016-08-22T02:04:40.231Z,0
2016-08-22T02:05:53.208Z,0
2016-08-22T02:07:06.395Z,0
2016-08-22T02:08:19.380Z,0
2016-08-22T02:09:32.364Z,0
2016-08-22T02:10:45.344Z,0
2016-08-22T02:11:58.332Z,0
2016-08-22T02:13:11.309Z,0
2016-08-22T02:14:24.293Z,0
2016-08-22T02:15:37.269Z,0
2016-08-22T02:16:50.241Z,0
2016-08-22T02:18:03.430Z,0
2016-08-22T02:19:16.632Z,0
2016-08-22T02:20:29.612Z,0
2016-08-22T02:21:42.795Z,0
2016-08-22T02:22:55.771Z,0
2016-08-22T02:24:08.761Z,0
2016-08-22T02:25:21.941Z,0
2016-08-22T02:26:34.922Z,0
2016-08-22T02:27:48.096Z,0
2016-08-22T02:29:01.084Z,0
2016-08-22T02:30:14.075Z,0
2016-08-22T02:31:27.260Z,0
2016-08-22T02:32:40.254Z,0
2016-08-22T02:33:53.428Z,0
2016-08-22T02:35:06.433Z,0
2016-08-22T02:36:19.616Z,0
2016-08-22T02:37:32.596Z,0
2016-08-22T02:38:45.802Z,0
2016-08-22T02:39:58.782Z,0
2016-08-22T02:41:11.760Z,0
2016-08-22T02:42:24.744Z,0
2016-08-22T02:43:37.730Z,0
2016-08-22T02:44:50.714Z,0
2016-08-22T02:46:03.693Z,0
2016-08-22T02:47:16.676Z,0
2016-08-22T02:48:29.663Z,0
2016-08-22T02:49:42.645Z,0
2016-08-22T02:50:55.628Z,0
2016-08-22T02:52:08.605Z,0
2016-08-22T02:53:21.597Z,0
2016-08-22T02:54:34.574Z,0
2016-08-22T02:55:47.823Z,0
2016-08-22T02:57:00.993Z,0
2016-08-22T02:58:14.185Z,0
2016-08-22T02:59:27.159Z,0
2016-08-22T03:00:40.132Z,0
2016-08-22T03:01:53.116Z,0
2016-08-22T03:03:06.094Z,0
2016-08-22T03:04:19.073Z,0
2016-08-22T03:05:32.060Z,0
2016-08-22T03:06:45.240Z,0
2016-08-22T03:07:58.225Z,0
2016-08-22T03:09:11.413Z,0
2016-08-22T03:10:24.585Z,0
2016-08-22T03:11:37.759Z,0
2016-08-22T03:12:50.739Z,0
2016-08-22T03:14:03.924Z,0
2016-08-22T03:15:16.905Z,0
2016-08-22T03:16:30.081Z,0
2016-08-22T03:17:43.052Z,0
2016-08-22T03:18:56.034Z,0
2016-08-22T03:20:09.023Z,0
2016-08-22T03:21:22.202Z,0
2016-08-22T03:22:35.185Z,0
2016-08-22T03:23:48.161Z,0
2016-08-22T03:25:01.143Z,0
2016-08-22T03:26:14.523Z,0
2016-08-22T03:27:27.511Z,0
2016-08-22T03:28:40.689Z,0
2016-08-22T03:29:53.664Z,0
2016-08-22T03:31:06.632Z,0
2016-08-22T03:32:19.608Z,0
2016-08-22T03:33:32.592Z,0
2016-08-22T03:34:45.771Z,0
2016-08-22T03:35:58.951Z,0
2016-08-22T03:37:12.137Z,0
2016-08-22T03:38:25.121Z,0
2016-08-22T03:39:38.107Z,0
2016-08-22T03:40:51.298Z,0
2016-08-22T03:42:04.279Z,0
2016-08-22T03:43:17.264Z,0
2016-08-22T03:44:30.240Z,0
2016-08-22T03:45:43.628Z,0
2016-08-22T03:46:56.602Z,0
2016-08-22T03:48:09.591Z,0
2016-08-22T03:49:22.572Z,0
2016-08-22T03:50:35.553Z,0
2016-08-22T03:51:48.525Z,0
2016-08-22T03:53:01.501Z,0
2016-08-22T03:54:14.477Z,0
2016-08-22T03:55:27.451Z,0
2016-08-22T03:56:40.475Z,0
2016-08-22T03:57:53.451Z,0
2016-08-22T03:59:06.426Z,0
2016-08-22T04:00:19.425Z,0
2016-08-22T04:01:32.397Z,0
2016-08-22T04:02:45.373Z,0
2016-08-22T04:03:58.551Z,0
2016-08-22T04:05:11.737Z,0
2016-08-22T04:06:24.707Z,0
2016-08-22T04:07:37.684Z,0
2016-08-22T04:08:50.685Z,0
2016-08-22T04:10:03.663Z,0
2016-08-22T04:11:16.651Z,0
2016-08-22T04:12:29.645Z,0
2016-08-22T04:13:42.613Z,0
2016-08-22T04:14:55.792Z,0
2016-08-22T04:16:09.183Z,5
2016-08-22T04:17:22.161Z,5
2016-08-22T04:18:35.139Z,5
2016-08-22T04:19:48.126Z,5
2016-08-22T04:21:01.094Z,10
2016-08-22T04:22:14.081Z,10
2016-08-22T04:23:27.263Z,10
2016-08-22T04:24:40.251Z,10
2016-08-22T04:25:53.431Z,10
2016-08-22T04:27:06.413Z,10
2016-08-22T04:28:19.392Z,10
2016-08-22T04:29:32.375Z,10
2016-08-22T04:30:45.357Z,15
2016-08-22T04:31:58.334Z,15
2016-08-22T04:33:11.323Z,15
2016-08-22T04:34:24.307Z,15
2016-08-22T04:35:37.489Z,20
2016-08-22T04:36:50.468Z,20
2016-08-22T04:38:03.450Z,20
2016-08-22T04:39:16.413Z,25
2016-08-22T04:40:29.389Z,25
2016-08-22T04:41:42.352Z,30
2016-08-22T04:42:55.345Z,35
2016-08-22T04:44:08.527Z,35
2016-08-22T04:45:21.512Z,35
2016-08-22T04:46:34.500Z,35
2016-08-22T04:47:47.476Z,35
2016-08-22T04:49:00.446Z,35
2016-08-22T04:50:13.424Z,35
2016-08-22T04:51:26.402Z,35
2016-08-22T04:52:39.380Z,35
2016-08-22T04:53:52.361Z,40
2016-08-22T04:55:05.339Z,40
2016-08-22T04:56:18.323Z,40
2016-08-22T04:57:31.556Z,40
2016-08-22T04:58:44.554Z,40
2016-08-22T04:59:57.537Z,40
2016-08-22T05:01:10.515Z,35
2016-08-22T05:02:23.497Z,35
2016-08-22T05:03:36.476Z,35
2016-08-22T05:04:49.675Z,30
2016-08-22T05:06:02.656Z,25
2016-08-22T05:07:15.642Z,30
2016-08-22T05:08:28.823Z,25
2016-08-22T05:09:41.794Z,25
2016-08-22T05:10:54.775Z,25
2016-08-22T05:12:07.756Z,30
2016-08-22T05:13:20.741Z,30
2016-08-22T05:14:33.715Z,30
2016-08-22T05:15:46.693Z,30
2016-08-22T05:16:59.673Z,30
2016-08-22T05:18:12.679Z,30
2016-08-22T05:19:25.667Z,30
2016-08-22T05:20:38.654Z,30
2016-08-22T05:21:51.842Z,30
2016-08-22T05:23:04.819Z,35
2016-08-22T05:24:17.805Z,35
2016-08-22T05:25:30.982Z,40
2016-08-22T05:26:43.965Z,40
2016-08-22T05:27:57.144Z,40
2016-08-22T05:29:10.114Z,40
2016-08-22T05:30:23.290Z,40
2016-08-22T05:31:36.263Z,40
2016-08-22T05:32:49.472Z,40
2016-08-22T05:34:02.452Z,40
2016-08-22T05:35:15.430Z,35
2016-08-22T05:36:28.426Z,30
2016-08-22T05:37:41.407Z,30
2016-08-22T05:38:54.389Z,25
2016-08-22T05:40:07.387Z,25
2016-08-22T05:41:20.360Z,25
2016-08-22T05:42:33.364Z,25
2016-08-22T05:43:46.333Z,25
2016-08-22T05:44:59.313Z,25
2016-08-22T05:46:12.292Z,30
2016-08-22T05:47:25.292Z,30
2016-08-22T05:48:38.271Z,30
2016-08-22T05:49:51.252Z,35
2016-08-22T05:51:04.425Z,35
2016-08-22T05:52:17.616Z,40
2016-08-22T05:53:30.601Z,40
2016-08-22T05:54:43.790Z,40
2016-08-22T05:55:56.770Z,40
2016-08-22T05:57:09.749Z,40
2016-08-22T05:58:22.768Z,45
2016-08-22T05:59:35.763Z,40
2016-08-22T06:00:48.749Z,40
2016-08-22T06:02:01.735Z,40
2016-08-22T06:03:14.712Z,40
2016-08-22T06:04:27.888Z,45
2016-08-22T06:05:40.861Z,45
2016-08-22T06:06:53.839Z,50
2016-08-22T06:08:07.028Z,45
2016-08-22T06:09:20.018Z,45
2016-08-22T06:10:33.005Z,40
2016-08-22T06:11:45.982Z,40
2016-08-22T06:12:58.961Z,40
2016-08-22T06:14:11.940Z,40
2016-08-22T06:15:24.922Z,40
2016-08-22T06:16:37.917Z,45
2016-08-22T06:17:51.123Z,50
2016-08-22T06:19:04.097Z,55
2016-08-22T06:20:17.268Z,55
2016-08-22T06:21:30.448Z,60
2016-08-22T06:22:43.426Z,55
2016-08-22T06:23:56.408Z,55
2016-08-22T06:25:09.387Z,55
2016-08-22T06:26:22.578Z,55
2016-08-22T06:27:35.564Z,55
2016-08-22T06:28:48.562Z,55
2016-08-22T06:30:01.555Z,55
2016-08-22T06:31:14.739Z,55
2016-08-22T06:32:27.721Z,55
2016-08-22T06:33:40.696Z,55
2016-08-22T06:34:53.884Z,55
2016-08-22T06:36:07.273Z,60
2016-08-22T06:37:20.458Z,65
2016-08-22T06:38:33.432Z,65
2016-08-22T06:39:46.410Z,70
2016-08-22T06:40:59.394Z,65
2016-08-22T06:42:12.391Z,65
2016-08-22T06:43:25.369Z,60
2016-08-22T06:44:38.344Z,60
2016-08-22T06:45:51.328Z,60
2016-08-22T06:47:04.315Z,60
2016-08-22T06:48:17.313Z,65
2016-08-22T06:49:30.302Z,65
2016-08-22T06:50:43.274Z,70
2016-08-22T06:51:56.459Z,75
2016-08-22T06:53:09.439Z,80
2016-08-22T06:54:22.419Z,80
2016-08-22T06:55:35.395Z,85
2016-08-22T06:56:48.373Z,90
2016-08-22T06:58:01.367Z,90
2016-08-22T06:59:14.406Z,95
2016-08-22T07:00:27.389Z,90
2016-08-22T07:01:40.365Z,80
2016-08-22T07:02:53.348Z,80
2016-08-22T07:04:06.530Z,80
2016-08-22T07:05:19.510Z,75
2016-08-22T07:06:32.513Z,75
2016-08-22T07:07:45.505Z,70
2016-08-22T07:08:58.487Z,65
2016-08-22T07:10:11.473Z,60
2016-08-22T07:11:24.458Z,55
2016-08-22T07:12:37.647Z,55
2016-08-22T07:13:50.629Z,55
2016-08-22T07:15:03.618Z,60
2016-08-22T07:16:16.599Z,65
2016-08-22T07:17:29.589Z,70
2016-08-22T07:18:42.573Z,70
2016-08-22T07:19:55.554Z,75
2016-08-22T07:21:08.547Z,85
2016-08-22T07:22:21.541Z,90
2016-08-22T07:23:34.514Z,90
2016-08-22T07:24:47.493Z,100
2016-08-22T07:26:00.671Z,105
2016-08-22T07:27:13.665Z,115
2016-08-22T07:28:26.869Z,115
2016-08-22T07:29:39.845Z,120
2016-08-22T07:30:53.034Z,110
2016-08-22T07:32:06.021Z,110
2016-08-22T07:33:19.007Z,105
2016-08-22T07:34:31.986Z,105
2016-08-22T07:35:44.963Z,105
2016-08-22T07:36:57.941Z,110
2016-08-22T07:38:10.962Z,105
2016-08-22T07:39:24.142Z,100
2016-08-22T07:40:37.134Z,105
2016-08-22T07:41:50.132Z,110
2016-08-22T07:43:03.113Z,115
2016-08-22T07:44:16.092Z,120
2016-08-22T07:45:29.077Z,115
2016-08-22T07:46:42.063Z,110
2016-08-22T07:47:55.048Z,115
2016-08-22T07:49:08.238Z,140
2016-08-22T07:50:21.218Z,155
2016-08-22T07:51:34.220Z,175
2016-08-22T07:52:47.447Z,165
2016-08-22T07:54:00.431Z,145
2016-08-22T07:55:13.619Z,125
2016-08-22T07:56:26.799Z,120
2016-08-22T07:57:39.784Z,115
2016-08-22T07:58:52.779Z,115
2016-08-22T08:00:06.013Z,120
2016-08-22T08:01:19.398Z,120
2016-08-22T08:02:32.388Z,130
2016-08-22T08:03:45.570Z,120
2016-08-22T08:04:58.559Z,95
2016-08-22T08:06:11.940Z,85
2016-08-22T08:07:24.934Z,80
2016-08-22T08:08:38.135Z,85
2016-08-22T08:09:51.117Z,100
2016-08-22T08:11:04.094Z,110
2016-08-22T08:12:17.276Z,120
2016-08-22T08:13:30.251Z,120
2016-08-22T08:14:43.271Z,120
2016-08-22T08:15:56.251Z,120
2016-08-22T08:17:09.425Z,120
2016-08-22T08:18:22.606Z,125
2016-08-22T08:19:35.589Z,130
2016-08-22T08:20:48.567Z,120
2016-08-22T08:22:01.548Z,120
2016-08-22T08:23:14.529Z,130
2016-08-22T08:24:27.517Z,145
2016-08-22T08:25:40.494Z,145
2016-08-22T08:26:53.473Z,130
2016-08-22T08:28:06.468Z,115
2016-08-22T08:29:19.526Z,105
2016-08-22T08:30:32.731Z,105
2016-08-22T08:31:45.718Z,105
2016-08-22T08:32:58.699Z,115
2016-08-22T08:34:11.682Z,115
2016-08-22T08:35:24.666Z,120
2016-08-22T08:36:37.663Z,125
2016-08-22T08:37:50.849Z,140
2016-08-22T08:39:04.028Z,150
2016-08-22T08:40:17.006Z,165
2016-08-22T08:41:29.992Z,165
2016-08-22T08:42:42.974Z,160
2016-08-22T08:43:55.956Z,170
2016-08-22T08:45:08.934Z,160
2016-08-22T08:46:21.916Z,165
2016-08-22T08:47:34.906Z,155
2016-08-22T08:48:47.883Z,145
2016-08-22T08:50:00.865Z,140
2016-08-22T08:51:13.851Z,140
2016-08-22T08:52:26.851Z,130
2016-08-22T08:53:40.044Z,140
2016-08-22T08:54:53.029Z,140
2016-08-22T08:56:06.018Z,135
2016-08-22T08:57:19.001Z,140
2016-08-22T08:58:32.006Z,150
2016-08-22T08:59:44.988Z,175
2016-08-22T09:00:58.037Z,170
2016-08-22T09:02:11.218Z,185
2016-08-22T09:03:24.196Z,185
2016-08-22T09:04:37.177Z,175
2016-08-22T09:05:50.159Z,150
2016-08-22T09:07:03.142Z,180
2016-08-22T09:08:16.127Z,170
2016-08-22T09:09:29.119Z,170
2016-08-22T09:10:42.297Z,185
2016-08-22T09:11:55.276Z,135
2016-08-22T09:13:08.465Z,125
2016-08-22T09:14:21.447Z,150
2016-08-22T09:15:34.433Z,195
2016-08-22T09:16:47.410Z,205
2016-08-22T09:18:00.397Z,160
2016-08-22T09:19:13.391Z,155
2016-08-22T09:20:26.382Z,160
2016-08-22T09:21:39.371Z,150
2016-08-22T09:22:52.361Z,180
2016-08-22T09:24:05.340Z,160
2016-08-22T09:25:18.318Z,140
2016-08-22T09:26:31.504Z,115
2016-08-22T09:27:44.492Z,140
2016-08-22T09:28:57.484Z,150
2016-08-22T09:30:10.684Z,170
2016-08-22T09:31:23.663Z,160
2016-08-22T09:32:36.649Z,165
2016-08-22T09:33:49.632Z,200
2016-08-22T09:35:02.619Z,190
2016-08-22T09:36:15.804Z,170
2016-08-22T09:37:28.786Z,160
2016-08-22T09:38:41.774Z,150
2016-08-22T09:39:54.754Z,120
2016-08-22T09:41:07.731Z,105
2016-08-22T09:42:21.124Z,95
2016-08-22T09:43:34.100Z,90
2016-08-22T09:44:47.085Z,100
2016-08-22T09:46:00.067Z,90
2016-08-22T09:47:13.046Z,90
2016-08-22T09:48:26.039Z,95
2016-08-22T09:49:39.038Z,90
2016-08-22T09:50:52.024Z,85
2016-08-22T09:52:05.208Z,90
2016-08-22T09:53:18.392Z,90
2016-08-22T09:54:31.380Z,95
2016-08-22T09:55:44.380Z,95
2016-08-22T09:56:57.566Z,90
2016-08-22T09:58:10.552Z,80
2016-08-22T09:59:23.729Z,85
2016-08-22T10:00:36.711Z,95
2016-08-22T10:01:49.759Z,90
2016-08-22T10:03:02.744Z,95
2016-08-22T10:04:15.932Z,110
2016-08-22T10:05:28.909Z,160
2016-08-22T10:06:41.903Z,180
2016-08-22T10:07:54.891Z,155
2016-08-22T10:09:07.883Z,155
2016-08-22T10:10:20.867Z,145
2016-08-22T10:11:33.854Z,135
2016-08-22T10:12:46.853Z,130
2016-08-22T10:13:59.862Z,105
2016-08-22T10:15:12.840Z,110
2016-08-22T10:16:25.823Z,95
2016-08-22T10:17:38.799Z,110
2016-08-22T10:18:51.790Z,100
2016-08-22T10:20:04.979Z,120
2016-08-22T10:21:18.161Z,90
2016-08-22T10:22:31.138Z,125
2016-08-22T10:23:44.114Z,120
2016-08-22T10:24:57.103Z,150
2016-08-22T10:26:10.293Z,125
2016-08-22T10:27:23.289Z,125
2016-08-22T10:28:36.683Z,120
2016-08-22T10:29:49.665Z,110
2016-08-22T10:31:02.661Z,110
2016-08-22T10:32:15.643Z,100
2016-08-22T10:33:28.623Z,95
2016-08-22T10:34:41.604Z,95
2016-08-22T10:35:54.587Z,95
2016-08-22T10:37:07.565Z,100
2016-08-22T10:38:20.561Z,100
2016-08-22T10:39:33.547Z,110
2016-08-22T10:40:46.529Z,115
2016-08-22T10:41:59.504Z,115
2016-08-22T10:43:12.497Z,125
2016-08-22T10:44:25.483Z,135
2016-08-22T10:45:38.471Z,115
2016-08-22T10:46:51.453Z,110
2016-08-22T10:48:04.637Z,90
2016-08-22T10:49:17.631Z,90
2016-08-22T10:50:30.612Z,80
2016-08-22T10:51:43.595Z,90
2016-08-22T10:52:56.574Z,85
2016-08-22T10:54:09.558Z,85
2016-08-22T10:55:22.545Z,105
2016-08-22T10:56:35.985Z,110
2016-08-22T10:57:48.958Z,130
2016-08-22T10:59:01.962Z,130
2016-08-22T11:00:14.953Z,120
2016-08-22T11:01:27.935Z,95
2016-08-22T11:02:41.167Z,110
2016-08-22T11:03:54.148Z,125
2016-08-22T11:05:07.329Z,130
2016-08-22T11:06:20.313Z,125
2016-08-22T11:07:33.490Z,120
2016-08-22T11:08:46.685Z,115
2016-08-22T11:09:59.671Z,110
2016-08-22T11:11:12.659Z,120
2016-08-22T11:12:25.641Z,125
2016-08-22T11:13:38.621Z,155
2016-08-22T11:14:51.606Z,135
2016-08-22T11:16:04.592Z,135
2016-08-22T11:17:17.781Z,135
2016-08-22T11:18:30.758Z,115
2016-08-22T11:19:43.737Z,100
2016-08-22T11:20:56.733Z,90
2016-08-22T11:22:09.719Z,100
2016-08-22T11:23:22.704Z,100
2016-08-22T11:24:35.686Z,95
2016-08-22T11:25:48.680Z,90
2016-08-22T11:27:01.666Z,95
2016-08-22T11:28:14.648Z,130
2016-08-22T11:29:27.833Z,155
2016-08-22T11:30:40.819Z,120
2016-08-22T11:31:54.001Z,125
2016-08-22T11:33:06.978Z,140
2016-08-22T11:34:20.159Z,125
2016-08-22T11:35:33.135Z,110
2016-08-22T11:36:46.323Z,110
2016-08-22T11:37:59.298Z,135
2016-08-22T11:39:12.272Z,125
2016-08-22T11:40:25.257Z,140
2016-08-22T11:41:38.243Z,155
2016-08-22T11:42:51.232Z,175
2016-08-22T11:44:04.410Z,155
2016-08-22T11:45:17.386Z,150
2016-08-22T11:46:30.368Z,135
2016-08-22T11:47:43.357Z,140
2016-08-22T11:48:56.342Z,155
2016-08-22T11:50:09.320Z,170
2016-08-22T11:51:22.325Z,160
2016-08-22T11:52:35.516Z,155
2016-08-22T11:53:48.504Z,145
2016-08-22T11:55:01.692Z,135
2016-08-22T11:56:14.673Z,130
2016-08-22T11:57:27.650Z,115
2016-08-22T11:58:40.637Z,100
2016-08-22T11:59:53.625Z,85
2016-08-22T12:01:06.601Z,80
2016-08-22T12:02:19.787Z,80
2016-08-22T12:03:32.821Z,100
2016-08-22T12:04:45.801Z,95
2016-08-22T12:05:58.782Z,95
2016-08-22T12:07:11.770Z,115
2016-08-22T12:08:24.749Z,140
2016-08-22T12:09:37.941Z,150
2016-08-22T12:10:50.917Z,120
2016-08-22T12:12:03.915Z,120
2016-08-22T12:13:17.092Z,140
2016-08-22T12:14:30.071Z,140
2016-08-22T12:15:43.046Z,125
2016-08-22T12:16:56.025Z,105
2016-08-22T12:18:09.008Z,100
2016-08-22T12:19:21.989Z,105
2016-08-22T12:20:34.965Z,130
2016-08-22T12:21:47.949Z,135
2016-08-22T12:23:00.946Z,140
2016-08-22T12:24:13.930Z,135
2016-08-22T12:25:26.909Z,135
2016-08-22T12:26:40.096Z,130
2016-08-22T12:27:53.279Z,145
2016-08-22T12:29:06.256Z,150
2016-08-22T12:30:19.229Z,130
2016-08-22T12:31:32.414Z,130
2016-08-22T12:32:45.400Z,135
2016-08-22T12:33:58.395Z,150
2016-08-22T12:35:11.579Z,150
2016-08-22T12:36:24.560Z,125
2016-08-22T12:37:37.553Z,120
2016-08-22T12:38:50.536Z,90
2016-08-22T12:40:03.528Z,80
2016-08-22T12:41:16.507Z,90
2016-08-22T12:42:29.703Z,80
2016-08-22T12:43:42.683Z,70
2016-08-22T12:44:55.658Z,75
2016-08-22T12:46:08.646Z,65
2016-08-22T12:47:21.638Z,60
2016-08-22T12:48:34.621Z,60
2016-08-22T12:49:47.812Z,55
2016-08-22T12:51:00.798Z,50
2016-08-22T12:52:13.795Z,55
2016-08-22T12:53:26.773Z,55
2016-08-22T12:54:39.759Z,60
2016-08-22T12:55:52.744Z,60
2016-08-22T12:57:05.726Z,70
2016-08-22T12:58:18.708Z,90
2016-08-22T12:59:31.698Z,95
2016-08-22T13:00:44.891Z,110
2016-08-22T13:01:57.864Z,115
2016-08-22T13:03:10.839Z,105
2016-08-22T13:04:23.874Z,110
2016-08-22T13:05:36.859Z,115
2016-08-22T13:06:49.837Z,95
2016-08-22T13:08:03.215Z,100
2016-08-22T13:09:16.194Z,95
2016-08-22T13:10:29.173Z,95
2016-08-22T13:11:42.155Z,90
2016-08-22T13:12:55.340Z,75
2016-08-22T13:14:08.330Z,80
2016-08-22T13:15:21.325Z,80
2016-08-22T13:16:34.507Z,75
2016-08-22T13:17:47.685Z,75
2016-08-22T13:19:00.672Z,85
2016-08-22T13:20:13.864Z,80
2016-08-22T13:21:26.864Z,90
2016-08-22T13:22:39.853Z,85
2016-08-22T13:23:52.838Z,80
2016-08-22T13:25:05.826Z,70
2016-08-22T13:26:19.112Z,65
2016-08-22T13:27:32.093Z,65
2016-08-22T13:28:45.090Z,65
2016-08-22T13:29:58.282Z,75
2016-08-22T13:31:11.272Z,90
2016-08-22T13:32:24.451Z,90
2016-08-22T13:33:37.442Z,90
2016-08-22T13:34:50.422Z,90
2016-08-22T13:36:03.401Z,80
2016-08-22T13:37:16.397Z,70
2016-08-22T13:38:29.599Z,60
2016-08-22T13:39:42.585Z,50
2016-08-22T13:40:55.566Z,50
2016-08-22T13:42:08.570Z,50
2016-08-22T13:43:21.564Z,50
2016-08-22T13:44:34.546Z,50
2016-08-22T13:45:47.543Z,60
2016-08-22T13:47:00.543Z,65
2016-08-22T13:48:13.536Z,65
2016-08-22T13:49:26.524Z,70
2016-08-22T13:50:39.509Z,85
2016-08-22T13:51:52.695Z,105
2016-08-22T13:53:05.877Z,105
2016-08-22T13:54:18.860Z,105
2016-08-22T13:55:31.835Z,95
2016-08-22T13:56:44.821Z,100
2016-08-22T13:57:57.795Z,95
2016-08-22T13:59:10.783Z,95
2016-08-22T14:00:23.766Z,125
2016-08-22T14:01:36.960Z,120
2016-08-22T14:02:49.945Z,115
2016-08-22T14:04:02.939Z,105
2016-08-22T14:05:16.171Z,115
2016-08-22T14:06:29.154Z,105
2016-08-22T14:07:42.144Z,105
2016-08-22T14:08:55.138Z,85
2016-08-22T14:10:08.116Z,85
2016-08-22T14:11:21.107Z,85
2016-08-22T14:12:34.103Z,90
2016-08-22T14:13:47.095Z,85
2016-08-22T14:15:00.094Z,90
2016-08-22T14:16:13.072Z,105
2016-08-22T14:17:26.063Z,130
2016-08-22T14:18:39.248Z,135
2016-08-22T14:19:52.257Z,140
2016-08-22T14:21:05.240Z,140
2016-08-22T14:22:18.213Z,155
2016-08-22T14:23:31.189Z,155
2016-08-22T14:24:44.168Z,155
2016-08-22T14:25:57.368Z,150
2016-08-22T14:27:10.351Z,130
2016-08-22T14:28:23.326Z,120
2016-08-22T14:29:36.307Z,100
2016-08-22T14:30:49.291Z,95
2016-08-22T14:32:02.482Z,90
2016-08-22T14:33:15.467Z,95
2016-08-22T14:34:28.447Z,105
2016-08-22T14:35:41.423Z,100
2016-08-22T14:36:54.618Z,95
2016-08-22T14:38:07.816Z,90
2016-08-22T14:39:20.800Z,85
2016-08-22T14:40:33.986Z,85
2016-08-22T14:41:47.179Z,70
2016-08-22T14:43:00.160Z,85
2016-08-22T14:44:13.151Z,95
2016-08-22T14:45:26.158Z,80
2016-08-22T14:46:39.148Z,100
2016-08-22T14:47:52.347Z,125
2016-08-22T14:49:05.340Z,135
2016-08-22T14:50:18.330Z,160
2016-08-22T14:51:31.311Z,200
2016-08-22T14:52:44.319Z,220
2016-08-22T14:53:57.307Z,205
2016-08-22T14:55:10.317Z,195
2016-08-22T14:56:23.511Z,195
2016-08-22T14:57:36.505Z,210
2016-08-22T14:58:49.897Z,215
2016-08-22T15:00:02.878Z,200
2016-08-22T15:01:15.864Z,165
2016-08-22T15:02:28.843Z,160
2016-08-22T15:03:41.826Z,175
2016-08-22T15:04:54.807Z,185
2016-08-22T15:06:07.843Z,160
2016-08-22T15:07:20.826Z,150
2016-08-22T15:08:33.816Z,165
2016-08-22T15:09:46.801Z,150
2016-08-22T15:10:59.788Z,125
2016-08-22T15:12:12.780Z,100
2016-08-22T15:13:25.775Z,105
2016-08-22T15:14:38.766Z,110
2016-08-22T15:15:51.741Z,115
2016-08-22T15:17:04.721Z,105
2016-08-22T15:18:17.705Z,80
2016-08-22T15:19:30.691Z,75
2016-08-22T15:20:43.673Z,100
2016-08-22T15:21:56.655Z,120
2016-08-22T15:23:09.636Z,120
2016-08-22T15:24:22.625Z,115
2016-08-22T15:25:35.611Z,120
2016-08-22T15:26:48.592Z,125
2016-08-22T15:28:01.773Z,125
2016-08-22T15:29:15.155Z,120
2016-08-22T15:30:28.149Z,120
2016-08-22T15:31:41.359Z,115
2016-08-22T15:32:54.347Z,105
2016-08-22T15:34:07.335Z,100
2016-08-22T15:35:20.326Z,120
2016-08-22T15:36:33.316Z,145
2016-08-22T15:37:46.320Z,155
2016-08-22T15:38:59.303Z,165
2016-08-22T15:40:12.295Z,180
2016-08-22T15:41:25.277Z,180
2016-08-22T15:42:38.258Z,180
2016-08-22T15:43:51.239Z,170
2016-08-22T15:45:04.233Z,160
2016-08-22T15:46:17.429Z,155
2016-08-22T15:47:30.421Z,150
2016-08-22T15:48:43.404Z,150
2016-08-22T15:49:56.388Z,150
2016-08-22T15:51:09.395Z,160
2016-08-22T15:52:22.392Z,160
2016-08-22T15:53:35.372Z,140
2016-08-22T15:54:48.357Z,140
2016-08-22T15:56:01.548Z,145
2016-08-22T15:57:14.535Z,150
2016-08-22T15:58:27.523Z,150
2016-08-22T15:59:40.916Z,160
2016-08-22T16:00:53.907Z,165
2016-08-22T16:02:07.098Z,170
2016-08-22T16:03:20.075Z,175
2016-08-22T16:04:33.264Z,195
2016-08-22T16:05:46.242Z,215
2016-08-22T16:06:59.282Z,215
2016-08-22T16:08:12.251Z,205
2016-08-22T16:09:25.439Z,200
2016-08-22T16:10:38.482Z,185
2016-08-22T16:11:51.469Z,170
2016-08-22T16:13:04.455Z,160
2016-08-22T16:14:17.437Z,130
2016-08-22T16:15:30.414Z,120
2016-08-22T16:16:43.416Z,110
2016-08-22T16:17:56.601Z,115
2016-08-22T16:19:09.605Z,125
2016-08-22T16:20:22.592Z,125
2016-08-22T16:21:35.570Z,125
2016-08-22T16:22:48.581Z,125
2016-08-22T16:24:01.575Z,120
2016-08-22T16:25:14.567Z,120
2016-08-22T16:26:27.547Z,120
2016-08-22T16:27:40.530Z,125
2016-08-22T16:28:53.524Z,125
2016-08-22T16:30:06.525Z,125
2016-08-22T16:31:19.507Z,145
2016-08-22T16:32:32.491Z,140
2016-08-22T16:33:45.474Z,140
2016-08-22T16:34:58.459Z,130
2016-08-22T16:36:11.442Z,120
2016-08-22T16:37:24.432Z,135
2016-08-22T16:38:37.428Z,145
2016-08-22T16:39:50.421Z,135
2016-08-22T16:41:03.405Z,120
2016-08-22T16:42:16.394Z,115
2016-08-22T16:43:29.379Z,110
2016-08-22T16:44:42.367Z,110
2016-08-22T16:45:55.356Z,110
2016-08-22T16:47:08.345Z,105
2016-08-22T16:48:21.327Z,100
2016-08-22T16:49:34.305Z,90
2016-08-22T16:50:47.502Z,85
2016-08-22T16:52:00.494Z,95
2016-08-22T16:53:13.488Z,95
2016-08-22T16:54:26.685Z,100
2016-08-22T16:55:39.676Z,105
2016-08-22T16:56:52.670Z,115
2016-08-22T16:58:05.673Z,115
2016-08-22T16:59:18.664Z,130
2016-08-22T17:00:31.647Z,130
2016-08-22T17:01:44.636Z,130
2016-08-22T17:02:57.827Z,125
2016-08-22T17:04:10.813Z,120
2016-08-22T17:05:24.007Z,110
2016-08-22T17:06:36.540Z,90
2016-08-22T17:07:49.589Z,85
2016-08-22T17:09:02.588Z,80
2016-08-22T17:10:15.778Z,80
2016-08-22T17:11:28.764Z,85
2016-08-22T17:12:41.752Z,85
2016-08-22T17:13:54.747Z,95
2016-08-22T17:15:07.726Z,100